createdAt,value
2023-03-03T00:02:16.544Z,31.23
2023-03-03T00:04:44.520Z,41.87
2023-03-03T00:07:13.016Z,37.07
2023-03-03T00:09:40.647Z,39.63
2023-03-03T00:12:31.349Z,36.00
2023-03-03T00:15:03.266Z,41.77
2023-03-03T00:17:32.944Z,33.40
2023-03-03T00:20:23.451Z,36.73
2023-03-03T00:22:51.535Z,36.10
2023-03-03T00:25:37.506Z,33.43
2023-03-03T00:28:32.959Z,37.30
2023-03-03T00:31:15.292Z,31.33
2023-03-03T00:33:54.982Z,38.23
2023-03-03T00:36:42.692Z,40.17
2023-03-03T00:39:39.999Z,32.83
2023-03-03T00:42:18.309Z,35.70
2023-03-03T00:44:56.289Z,33.27
2023-03-03T00:47:38.528Z,35.30
2023-03-03T00:50:12.337Z,28.50
2023-03-03T00:53:01.301Z,37.70
2023-03-03T00:55:31.790Z,29.27
2023-03-03T00:58:00.763Z,31.47
2023-03-03T01:00:35.609Z,42.07
2023-03-03T01:03:24.821Z,39.43
2023-03-03T01:05:55.171Z,34.27
2023-03-03T01:08:24.337Z,36.60
2023-03-03T01:10:59.589Z,38.20
2023-03-03T01:13:38.076Z,44.20
2023-03-03T01:16:07.351Z,35.03
2023-03-03T01:18:37.574Z,34.20
2023-03-03T01:21:05.924Z,32.90
2023-03-03T01:23:34.156Z,35.30
2023-03-03T01:26:02.194Z,30.10
2023-03-03T01:28:30.294Z,39.03
2023-03-03T01:31:05.989Z,33.10
2023-03-03T01:33:36.545Z,33.43
2023-03-03T01:36:05.703Z,37.10
2023-03-03T01:38:38.231Z,33.83
2023-03-03T01:41:06.603Z,37.67
2023-03-03T01:43:34.893Z,36.10
2023-03-03T01:46:02.621Z,34.63
2023-03-03T01:48:45.811Z,35.37
2023-03-03T01:51:31.159Z,31.60
2023-03-03T01:54:15.026Z,33.10
2023-03-03T01:56:44.816Z,35.03
2023-03-03T01:59:25.433Z,29.10
2023-03-03T02:01:54.327Z,36.00
2023-03-03T02:04:22.889Z,29.63
2023-03-03T02:07:08.478Z,29.33
2023-03-03T02:09:55.050Z,36.73
2023-03-03T02:12:43.590Z,23.30
2023-03-03T02:15:38.633Z,29.90
2023-03-03T02:18:19.556Z,31.37
2023-03-03T02:21:11.925Z,31.03
2023-03-03T02:24:34.882Z,23.13
2023-03-03T02:27:03.184Z,28.53
2023-03-03T02:29:31.699Z,36.03
2023-03-03T02:32:00.063Z,37.20
2023-03-03T02:34:28.267Z,29.57
2023-03-03T02:36:56.246Z,25.73
2023-03-03T02:39:27.733Z,28.10
2023-03-03T02:42:19.748Z,33.10
2023-03-03T02:44:52.047Z,31.87
2023-03-03T02:47:19.843Z,43.40
2023-03-03T02:49:47.602Z,32.23
2023-03-03T02:52:18.167Z,33.23
2023-03-03T02:54:47.664Z,36.97
2023-03-03T02:57:15.733Z,35.37
2023-03-03T02:59:43.508Z,37.93
2023-03-03T03:02:14.496Z,36.90
2023-03-03T03:04:43.111Z,35.53
2023-03-03T03:07:16.192Z,41.77
2023-03-03T03:09:44.192Z,37.37
2023-03-03T03:12:12.391Z,44.93
2023-03-03T03:14:40.155Z,40.40
2023-03-03T03:17:08.690Z,46.07
2023-03-03T03:19:36.432Z,45.23
2023-03-03T03:22:04.503Z,40.33
2023-03-03T03:24:35.153Z,37.60
2023-03-03T03:27:06.312Z,32.97
2023-03-03T03:29:35.049Z,43.23
2023-03-03T03:32:03.584Z,33.80
2023-03-03T03:34:31.530Z,39.33
2023-03-03T03:36:59.569Z,44.33
2023-03-03T03:39:29.165Z,40.13
2023-03-03T03:41:57.731Z,37.00
2023-03-03T03:44:25.455Z,34.50
2023-03-03T03:46:54.866Z,35.77
2023-03-03T03:49:22.780Z,37.83
2023-03-03T03:51:52.371Z,38.40
2023-03-03T03:54:23.816Z,38.80
2023-03-03T03:56:53.154Z,38.77
2023-03-03T03:59:21.638Z,42.20
2023-03-03T04:01:50.266Z,44.77
2023-03-03T04:04:18.834Z,41.13
2023-03-03T04:06:46.542Z,39.57
2023-03-03T04:09:15.943Z,44.60
2023-03-03T04:11:44.726Z,37.13
2023-03-03T04:14:13.883Z,44.93
2023-03-03T04:16:41.621Z,44.30
2023-03-03T04:19:10.868Z,46.90
2023-03-03T04:21:40.966Z,54.60
2023-03-03T04:24:09.033Z,50.70
2023-03-03T04:26:40.086Z,45.27
2023-03-03T04:29:07.913Z,49.10
2023-03-03T04:31:35.746Z,43.07
2023-03-03T04:34:05.899Z,36.40
2023-03-03T04:36:34.410Z,39.93
2023-03-03T04:39:03.277Z,45.43
2023-03-03T04:41:31.716Z,52.63
2023-03-03T04:43:59.787Z,43.63
2023-03-03T04:46:28.067Z,51.03
2023-03-03T04:48:56.992Z,58.57
2023-03-03T04:51:28.746Z,50.63
2023-03-03T04:53:56.836Z,50.43
2023-03-03T04:56:24.810Z,51.97
2023-03-03T04:58:52.722Z,48.33
2023-03-03T05:01:20.851Z,46.63
2023-03-03T05:03:48.840Z,50.80
2023-03-03T05:06:19.219Z,59.90
2023-03-03T05:08:47.554Z,49.57
2023-03-03T05:11:15.367Z,45.67
2023-03-03T05:13:43.538Z,52.23
2023-03-03T05:16:11.951Z,50.03
2023-03-03T05:18:39.765Z,49.97
2023-03-03T05:21:07.621Z,52.10
2023-03-03T05:23:35.373Z,53.53
2023-03-03T05:26:03.657Z,53.67
2023-03-03T05:28:33.547Z,48.47
2023-03-03T05:31:01.331Z,43.53
2023-03-03T05:33:29.343Z,38.40
2023-03-03T05:35:58.413Z,50.70
2023-03-03T05:38:26.402Z,46.30
2023-03-03T05:40:54.882Z,49.47
2023-03-03T05:43:22.857Z,56.37
2023-03-03T05:45:58.210Z,57.97
2023-03-03T05:48:26.131Z,51.57
2023-03-03T05:50:54.398Z,46.57
2023-03-03T05:53:24.195Z,48.00
2023-03-03T05:55:51.990Z,45.50
2023-03-03T05:58:20.033Z,48.10
2023-03-03T06:00:48.375Z,43.23
2023-03-03T06:03:17.210Z,35.20
2023-03-03T06:05:45.047Z,46.07
2023-03-03T06:08:13.242Z,55.33
2023-03-03T06:10:41.049Z,44.47
2023-03-03T06:13:11.417Z,43.43
2023-03-03T06:15:39.283Z,51.53
2023-03-03T06:18:07.551Z,46.83
2023-03-03T06:20:39.513Z,52.83
2023-03-03T06:23:11.386Z,50.17
2023-03-03T06:25:42.788Z,52.07
2023-03-03T06:28:15.367Z,43.90
2023-03-03T06:30:44.832Z,43.40
2023-03-03T06:33:12.581Z,51.10
2023-03-03T06:35:41.085Z,50.80
2023-03-03T06:38:08.934Z,48.27
2023-03-03T06:40:36.906Z,51.47
2023-03-03T06:43:08.067Z,49.90
2023-03-03T06:45:35.929Z,38.53
2023-03-03T06:48:04.142Z,49.77
2023-03-03T06:50:32.054Z,41.47
2023-03-03T06:53:19.996Z,57.63
2023-03-03T06:55:48.174Z,50.53
2023-03-03T06:58:22.655Z,46.40
2023-03-03T07:01:01.417Z,48.43
2023-03-03T07:03:35.854Z,49.43
2023-03-03T07:06:23.772Z,49.07
2023-03-03T07:08:58.427Z,59.43
2023-03-03T07:11:26.640Z,48.73
2023-03-03T07:13:56.532Z,57.90
2023-03-03T07:16:28.756Z,49.27
2023-03-03T07:19:03.370Z,48.97
2023-03-03T07:21:38.056Z,44.33
2023-03-03T07:24:31.734Z,50.10
2023-03-03T07:27:27.574Z,49.10
2023-03-03T07:30:26.322Z,47.50
2023-03-03T07:32:59.566Z,51.40
2023-03-03T07:35:45.265Z,56.23
2023-03-03T07:38:40.017Z,43.90
2023-03-03T07:41:23.628Z,44.33
2023-03-03T07:43:58.992Z,53.90
2023-03-03T07:46:45.585Z,55.23
2023-03-03T07:49:39.096Z,46.90
2023-03-03T07:52:44.523Z,53.27
2023-03-03T07:55:42.134Z,51.83
2023-03-03T07:58:12.884Z,48.97
2023-03-03T08:00:40.695Z,46.23
2023-03-03T08:03:21.419Z,55.23
2023-03-03T08:05:52.375Z,55.17
2023-03-03T08:08:38.817Z,53.90
2023-03-03T08:11:09.876Z,50.77
2023-03-03T08:13:42.974Z,57.03
2023-03-03T08:16:11.065Z,53.07
2023-03-03T08:18:50.249Z,55.70
2023-03-03T08:21:26.573Z,59.13
2023-03-03T08:23:55.107Z,50.37
2023-03-03T08:26:27.176Z,52.00
2023-03-03T08:28:56.048Z,45.93
2023-03-03T08:31:39.908Z,43.67
2023-03-03T08:34:09.022Z,50.47
2023-03-03T08:36:36.872Z,45.33
2023-03-03T08:39:07.419Z,49.93
2023-03-03T08:41:35.354Z,37.07
2023-03-03T08:44:03.225Z,38.77
2023-03-03T08:46:31.130Z,37.50
2023-03-03T08:48:59.054Z,41.83
2023-03-03T08:51:27.041Z,42.17
2023-03-03T08:53:55.020Z,51.40
2023-03-03T08:56:22.851Z,42.53
2023-03-03T08:59:01.603Z,40.73
2023-03-03T09:01:33.319Z,35.30
2023-03-03T09:04:01.473Z,35.17
2023-03-03T09:06:29.586Z,36.30
2023-03-03T09:08:57.764Z,40.17
2023-03-03T09:11:29.720Z,41.50
2023-03-03T09:14:13.949Z,34.10
2023-03-03T09:16:53.311Z,29.87
2023-03-03T09:19:37.204Z,37.23
2023-03-03T09:22:29.395Z,39.20
2023-03-03T09:25:00.397Z,39.43
2023-03-03T09:27:37.526Z,33.57
2023-03-03T09:30:47.159Z,42.93
2023-03-03T09:33:29.767Z,40.90
2023-03-03T09:36:38.124Z,34.73
2023-03-03T09:39:26.932Z,37.07
2023-03-03T09:42:28.106Z,35.73
2023-03-03T09:45:29.311Z,44.80
2023-03-03T09:48:59.414Z,44.07
2023-03-03T09:52:34.575Z,49.30
2023-03-03T09:55:50.136Z,53.67
2023-03-03T09:58:46.049Z,58.50
2023-03-03T10:02:25.190Z,51.47
2023-03-03T10:05:16.390Z,54.03
2023-03-03T10:08:29.931Z,41.67
2023-03-03T10:11:57.057Z,46.57
2023-03-03T10:15:15.535Z,42.10
2023-03-03T10:17:54.012Z,37.93
2023-03-03T10:21:16.695Z,36.80
2023-03-03T10:24:52.717Z,38.17
2023-03-03T10:28:35.126Z,41.60
2023-03-03T10:31:47.274Z,35.87
2023-03-03T10:34:42.244Z,27.27
2023-03-03T10:38:17.590Z,36.07
2023-03-03T10:41:46.745Z,37.43
2023-03-03T10:44:32.663Z,53.57
2023-03-03T10:47:33.139Z,35.33
2023-03-03T10:50:31.487Z,37.20
2023-03-03T10:53:59.026Z,33.93
2023-03-03T10:56:52.590Z,38.67
2023-03-03T11:00:31.721Z,30.60
2023-03-03T11:03:51.704Z,32.40
2023-03-03T11:07:07.029Z,34.37
2023-03-03T11:10:18.944Z,36.87
2023-03-03T11:13:13.711Z,34.93
2023-03-03T11:16:29.278Z,31.43
2023-03-03T11:19:35.935Z,25.50
2023-03-03T11:22:40.179Z,39.80
2023-03-03T11:26:07.819Z,30.57
2023-03-03T11:29:11.976Z,22.23
2023-03-03T11:32:14.318Z,31.07
2023-03-03T11:35:44.410Z,18.67
2023-03-03T11:38:59.533Z,27.30
2023-03-03T11:41:46.363Z,28.43
2023-03-03T11:44:37.433Z,19.27
2023-03-03T11:47:47.923Z,22.33
2023-03-03T11:50:39.256Z,20.90
2023-03-03T11:54:20.353Z,18.73
2023-03-03T11:56:51.161Z,21.10
2023-03-03T12:00:17.023Z,18.77
2023-03-03T12:03:42.432Z,18.80
2023-03-03T12:06:58.670Z,22.07
2023-03-03T12:10:25.218Z,26.00
2023-03-03T12:13:44.438Z,25.33
2023-03-03T12:17:02.725Z,19.70
2023-03-03T12:20:29.341Z,18.33
2023-03-03T12:23:18.000Z,14.33
2023-03-03T12:27:22.535Z,24.37
2023-03-03T12:30:37.391Z,17.47
2023-03-03T12:33:57.998Z,22.83
2023-03-03T12:37:24.975Z,19.47
2023-03-03T12:40:57.480Z,22.70
2023-03-03T12:43:55.818Z,20.00
2023-03-03T12:47:02.372Z,20.70
2023-03-03T12:50:07.029Z,17.50
2023-03-03T12:53:52.455Z,20.23
2023-03-03T12:57:06.895Z,16.87
2023-03-03T13:00:12.071Z,20.57
2023-03-03T13:04:12.196Z,20.17
2023-03-03T13:07:16.259Z,19.10
2023-03-03T13:10:17.558Z,24.87
2023-03-03T13:13:30.749Z,22.53
2023-03-03T13:16:17.335Z,22.17
2023-03-03T13:19:26.160Z,20.93
2023-03-03T13:22:15.155Z,23.80
2023-03-03T13:25:51.535Z,20.43
2023-03-03T13:28:43.153Z,20.83
2023-03-03T13:31:47.681Z,26.83
2023-03-03T13:35:05.134Z,22.90
2023-03-03T13:37:55.137Z,23.90
2023-03-03T13:41:15.987Z,21.83
2023-03-03T13:44:19.064Z,22.57
2023-03-03T13:47:14.731Z,25.70
2023-03-03T13:50:27.452Z,34.90
2023-03-03T13:53:56.810Z,36.67
2023-03-03T13:57:19.116Z,33.63
2023-03-03T14:00:52.748Z,29.63
2023-03-03T14:04:10.597Z,31.63
2023-03-03T14:06:52.825Z,30.13
2023-03-03T14:10:00.851Z,30.43
2023-03-03T14:13:13.237Z,32.33
2023-03-03T14:16:03.999Z,35.53
2023-03-03T14:18:49.084Z,37.57
2023-03-03T14:22:15.467Z,34.57
2023-03-03T14:25:16.056Z,33.43
2023-03-03T14:27:58.780Z,30.77
2023-03-03T14:30:44.126Z,33.00
2023-03-03T14:33:11.802Z,35.73
2023-03-03T14:36:03.915Z,34.20
2023-03-03T14:38:34.877Z,40.37
2023-03-03T14:41:21.438Z,29.97
2023-03-03T14:45:01.753Z,34.57
2023-03-03T14:47:31.016Z,30.93
2023-03-03T14:50:00.561Z,30.70
2023-03-03T14:52:35.219Z,32.70
2023-03-03T14:55:40.415Z,31.73
2023-03-03T14:58:42.826Z,29.83
2023-03-03T15:01:36.136Z,28.13
2023-03-03T15:04:16.750Z,22.70
2023-03-03T15:06:54.390Z,22.03
2023-03-03T15:09:48.721Z,19.30
2023-03-03T15:12:45.794Z,20.60
2023-03-03T15:15:27.451Z,25.40
2023-03-03T15:18:06.880Z,18.23
2023-03-03T15:21:06.841Z,24.63
2023-03-03T15:24:58.444Z,24.63
2023-03-03T15:27:49.683Z,19.50
2023-03-03T15:30:32.725Z,18.67
2023-03-03T15:33:38.820Z,20.07
2023-03-03T15:36:48.130Z,22.93
2023-03-03T15:40:05.256Z,19.73
2023-03-03T15:43:28.623Z,21.23
2023-03-03T15:46:50.405Z,20.43
2023-03-03T15:50:03.437Z,19.70
2023-03-03T15:53:02.137Z,20.40
2023-03-03T15:55:58.183Z,18.13
2023-03-03T15:59:30.949Z,17.30
2023-03-03T16:02:22.263Z,24.80
2023-03-03T16:05:40.028Z,23.70
2023-03-03T16:08:38.320Z,19.40
2023-03-03T16:11:34.967Z,29.70
2023-03-03T16:15:00.770Z,23.40
2023-03-03T16:18:58.529Z,67.30
2023-03-03T16:22:34.480Z,27.27
2023-03-03T16:25:58.372Z,24.73
2023-03-03T16:29:33.876Z,21.50
2023-03-03T16:32:49.273Z,22.17
2023-03-03T16:35:32.029Z,21.57
2023-03-03T16:38:41.903Z,20.53
2023-03-03T16:41:47.733Z,27.73
2023-03-03T16:45:24.325Z,22.03
2023-03-03T16:47:58.607Z,22.03
2023-03-03T16:51:46.129Z,27.87
2023-03-03T16:55:08.585Z,26.97
2023-03-03T16:58:57.748Z,22.50
2023-03-03T17:02:02.283Z,24.57
2023-03-03T17:05:03.370Z,22.17
2023-03-03T17:08:43.543Z,23.83
2023-03-03T17:12:00.826Z,26.73
2023-03-03T17:15:35.342Z,19.37
2023-03-03T17:18:46.702Z,31.73
2023-03-03T17:21:57.081Z,28.80
2023-03-03T17:24:56.229Z,21.80
2023-03-03T17:28:07.393Z,21.30
2023-03-03T17:31:17.262Z,24.10
2023-03-03T17:34:20.658Z,22.10
2023-03-03T17:37:58.662Z,22.53
2023-03-03T17:41:11.422Z,19.33
2023-03-03T17:44:11.372Z,23.40
2023-03-03T17:47:13.538Z,25.27
2023-03-03T17:50:43.886Z,20.43
2023-03-03T17:53:32.909Z,26.00
2023-03-03T17:56:40.843Z,24.77
2023-03-03T18:00:11.681Z,25.03
2023-03-03T18:03:35.141Z,25.73
2023-03-03T18:06:56.905Z,33.17
2023-03-03T18:10:19.724Z,26.10
2023-03-03T18:13:44.002Z,27.47
2023-03-03T18:17:22.302Z,32.27
2023-03-03T18:20:23.810Z,29.60
2023-03-03T18:22:53.522Z,22.93
2023-03-03T18:25:55.309Z,29.53
2023-03-03T18:28:52.055Z,28.50
2023-03-03T18:32:10.662Z,19.00
2023-03-03T18:34:42.267Z,35.20
2023-03-03T18:37:31.426Z,31.07
2023-03-03T18:40:04.961Z,27.43
2023-03-03T18:42:46.299Z,32.63
2023-03-03T18:45:20.639Z,31.20
2023-03-03T18:48:15.158Z,32.50
2023-03-03T18:50:49.878Z,30.73
2023-03-03T18:53:35.862Z,29.90
2023-03-03T18:56:11.789Z,26.07
2023-03-03T18:58:44.786Z,30.40
2023-03-03T19:01:43.415Z,20.93
2023-03-03T19:04:14.079Z,19.37
2023-03-03T19:06:47.753Z,22.63
2023-03-03T19:10:39.887Z,15.83
2023-03-03T19:13:47.094Z,18.90
2023-03-03T19:16:27.849Z,17.90
2023-03-03T19:19:10.340Z,19.50
2023-03-03T19:21:42.951Z,18.57
2023-03-03T19:24:34.944Z,20.97
2023-03-03T19:27:41.131Z,15.40
2023-03-03T19:30:43.712Z,19.23
2023-03-03T19:33:40.686Z,22.00
2023-03-03T19:36:44.547Z,36.23
2023-03-03T19:40:14.429Z,22.60
2023-03-03T19:44:15.582Z,22.80
2023-03-03T19:47:28.040Z,17.80
2023-03-03T19:51:05.692Z,17.20
2023-03-03T19:54:22.352Z,16.90
2023-03-03T19:56:58.704Z,12.20
2023-03-03T19:59:54.049Z,15.80
2023-03-03T20:04:05.981Z,12.43
2023-03-03T20:07:03.582Z,11.60
2023-03-03T20:10:07.701Z,10.97
2023-03-03T20:13:35.568Z,9.70
2023-03-03T20:16:41.849Z,8.93
2023-03-03T20:19:37.024Z,10.63
2023-03-03T20:22:48.416Z,12.57
2023-03-03T20:25:47.169Z,9.60
2023-03-03T20:29:03.252Z,10.27
2023-03-03T20:32:44.467Z,13.73
2023-03-03T20:36:14.911Z,13.27
2023-03-03T20:39:38.934Z,7.60
2023-03-03T20:42:38.461Z,10.70
2023-03-03T20:46:02.741Z,11.07
2023-03-03T20:49:29.642Z,9.97
2023-03-03T20:52:38.294Z,8.20
2023-03-03T20:56:00.264Z,8.60
2023-03-03T20:59:32.903Z,5.80
2023-03-03T21:03:22.215Z,11.43
2023-03-03T21:06:15.397Z,6.20
2023-03-03T21:08:57.072Z,5.70
2023-03-03T21:11:31.595Z,6.70
2023-03-03T21:14:17.456Z,4.57
2023-03-03T21:16:47.271Z,4.10
2023-03-03T21:19:33.357Z,6.33
2023-03-03T21:22:03.854Z,5.63
2023-03-03T21:24:59.172Z,6.70
2023-03-03T21:27:39.207Z,5.50
2023-03-03T21:30:17.583Z,10.40
2023-03-03T21:32:50.584Z,8.07
2023-03-03T21:35:22.878Z,5.97
2023-03-03T21:37:58.285Z,7.10
2023-03-03T21:40:31.381Z,7.53
2023-03-03T21:43:00.862Z,11.60
2023-03-03T21:45:30.243Z,12.23
2023-03-03T21:48:00.637Z,7.77
2023-03-03T21:50:32.860Z,9.63
2023-03-03T21:53:00.762Z,7.00
2023-03-03T21:55:28.365Z,14.50
2023-03-03T21:57:56.288Z,7.83
2023-03-03T22:00:24.615Z,13.33
2023-03-03T22:02:55.504Z,10.50
2023-03-03T22:05:23.372Z,10.70
2023-03-03T22:07:51.383Z,10.53
2023-03-03T22:10:19.230Z,12.27
2023-03-03T22:12:47.241Z,15.47
2023-03-03T22:15:15.458Z,11.63
2023-03-03T22:17:43.609Z,13.20
2023-03-03T22:20:17.248Z,14.43
2023-03-03T22:22:45.056Z,14.20
2023-03-03T22:25:12.951Z,10.43
2023-03-03T22:27:41.065Z,10.57
2023-03-03T22:30:13.093Z,10.00
2023-03-03T22:32:41.128Z,13.60
2023-03-03T22:35:10.672Z,10.93
2023-03-03T22:37:38.716Z,10.70
2023-03-03T22:40:08.359Z,13.97
2023-03-03T22:42:36.097Z,10.00
2023-03-03T22:45:04.875Z,16.00
2023-03-03T22:47:32.856Z,10.50
2023-03-03T22:50:00.691Z,10.30
2023-03-03T22:52:28.442Z,10.27
2023-03-03T22:54:59.029Z,13.23
2023-03-03T22:57:27.858Z,15.40
2023-03-03T22:59:55.887Z,10.83
2023-03-03T23:02:23.744Z,9.13
2023-03-03T23:04:58.178Z,17.73
2023-03-03T23:07:26.559Z,10.73
2023-03-03T23:09:55.060Z,12.50
2023-03-03T23:12:24.019Z,14.77
2023-03-03T23:14:52.105Z,14.80
2023-03-03T23:17:19.958Z,11.90
2023-03-03T23:19:49.089Z,11.87
2023-03-03T23:22:18.467Z,11.23
2023-03-03T23:24:46.200Z,10.63
2023-03-03T23:27:14.291Z,12.37
2023-03-03T23:29:42.107Z,15.27
2023-03-03T23:32:09.849Z,20.47
2023-03-03T23:34:37.955Z,12.10
2023-03-03T23:37:05.730Z,14.70
2023-03-03T23:39:33.663Z,15.93
2023-03-03T23:42:01.520Z,17.73
2023-03-03T23:44:29.462Z,8.53
2023-03-03T23:46:57.259Z,14.30
2023-03-03T23:49:25.317Z,14.13
2023-03-03T23:51:52.980Z,12.73
2023-03-03T23:54:20.717Z,14.97
2023-03-03T23:56:48.791Z,15.87
2023-03-03T23:59:16.661Z,11.00
